createdAt,value
2023-01-13T00:01:22.407Z,98236.09
2023-01-13T00:03:50.327Z,98227.13
2023-01-13T00:06:21.535Z,98219.34
2023-01-13T00:08:51.344Z,98221.00
2023-01-13T00:11:19.976Z,98222.00
2023-01-13T00:13:47.694Z,98214.03
2023-01-13T00:16:16.934Z,98207.72
2023-01-13T00:18:45.849Z,98208.72
2023-01-13T00:21:16.717Z,98204.44
2023-01-13T00:23:44.834Z,98202.59
2023-01-13T00:26:19.877Z,98199.13
2023-01-13T00:28:47.610Z,98202.78
2023-01-13T00:31:18.420Z,98206.28
2023-01-13T00:33:49.012Z,98214.44
2023-01-13T00:36:17.524Z,98209.13
2023-01-13T00:38:45.849Z,98214.25
2023-01-13T00:41:16.434Z,98220.38
2023-01-13T00:43:45.243Z,98216.06
2023-01-13T00:46:16.296Z,98216.91
2023-01-13T00:48:43.986Z,98214.44
2023-01-13T00:51:19.857Z,98220.53
2023-01-13T00:53:51.438Z,98217.09
2023-01-13T00:56:30.511Z,98215.44
2023-01-13T00:59:06.910Z,98222.56
2023-01-13T01:01:34.525Z,98209.13
2023-01-13T01:04:02.250Z,98206.66
2023-01-13T01:06:29.879Z,98202.16
2023-01-13T01:08:59.151Z,98199.72
2023-01-13T01:11:29.744Z,98200.53
2023-01-13T01:13:59.372Z,98202.53
2023-01-13T01:16:28.667Z,98209.50
2023-01-13T01:18:56.885Z,98199.91
2023-01-13T01:21:25.490Z,98191.94
2023-01-13T01:23:54.062Z,98183.97
2023-01-13T01:26:23.855Z,98188.28
2023-01-13T01:28:52.418Z,98186.63
2023-01-13T01:31:28.823Z,98183.97
2023-01-13T01:33:56.571Z,98183.97
2023-01-13T01:36:29.832Z,98169.91
2023-01-13T01:38:59.330Z,98176.00
2023-01-13T01:41:29.667Z,98174.38
2023-01-13T01:44:04.368Z,98160.09
2023-01-13T01:46:38.324Z,98158.47
2023-01-13T01:49:09.449Z,98156.81
2023-01-13T01:51:46.745Z,98142.56
2023-01-13T01:54:22.149Z,98147.84
2023-01-13T01:56:50.752Z,98146.19
2023-01-13T01:59:18.671Z,98143.53
2023-01-13T02:01:46.351Z,98141.72
2023-01-13T02:04:28.452Z,98142.72
2023-01-13T02:06:57.733Z,98142.56
2023-01-13T02:09:26.947Z,98141.72
2023-01-13T02:12:13.033Z,98135.75
2023-01-13T02:14:41.671Z,98141.91
2023-01-13T02:17:21.406Z,98135.13
2023-01-13T02:20:18.584Z,98134.31
2023-01-13T02:23:50.505Z,98127.38
2023-01-13T02:26:36.037Z,98117.59
2023-01-13T02:29:41.164Z,98120.44
2023-01-13T02:32:24.031Z,98116.78
2023-01-13T02:35:09.174Z,98112.28
2023-01-13T02:37:41.158Z,98108.19
2023-01-13T02:40:13.042Z,98100.22
2023-01-13T02:43:14.958Z,98103.69
2023-01-13T02:45:48.032Z,98106.34
2023-01-13T02:48:20.497Z,98099.59
2023-01-13T02:50:53.934Z,98099.59
2023-01-13T02:53:34.694Z,98092.63
2023-01-13T02:56:04.801Z,98090.81
2023-01-13T02:58:36.252Z,98093.47
2023-01-13T03:01:04.328Z,98092.63
2023-01-13T03:03:31.995Z,98086.50
2023-01-13T03:06:09.585Z,98091.00
2023-01-13T03:08:50.561Z,98092.00
2023-01-13T03:11:20.537Z,98083.22
2023-01-13T03:14:10.496Z,98082.25
2023-01-13T03:16:52.906Z,98073.66
2023-01-13T03:19:38.983Z,98079.78
2023-01-13T03:22:22.949Z,98077.13
2023-01-13T03:25:03.597Z,98082.41
2023-01-13T03:27:46.594Z,98081.59
2023-01-13T03:30:37.615Z,98065.69
2023-01-13T03:33:10.266Z,98077.13
2023-01-13T03:35:42.476Z,98080.78
2023-01-13T03:38:15.359Z,98079.13
2023-01-13T03:40:50.295Z,98073.84
2023-01-13T03:43:46.883Z,98072.00
2023-01-13T03:46:23.774Z,98067.72
2023-01-13T03:48:56.151Z,98067.53
2023-01-13T03:51:27.612Z,98070.19
2023-01-13T03:54:00.334Z,98070.19
2023-01-13T03:56:31.365Z,98071.81
2023-01-13T03:59:02.704Z,98069.16
2023-01-13T04:01:48.550Z,98064.88
2023-01-13T04:04:25.886Z,98059.56
2023-01-13T04:07:20.051Z,98062.22
2023-01-13T04:09:54.658Z,98071.81
2023-01-13T04:12:49.305Z,98064.88
2023-01-13T04:15:20.626Z,98063.22
2023-01-13T04:17:48.565Z,98064.03
2023-01-13T04:20:16.442Z,98069.34
2023-01-13T04:22:45.251Z,98069.16
2023-01-13T04:25:12.836Z,98070.19
2023-01-13T04:27:40.704Z,98075.50
2023-01-13T04:30:08.877Z,98075.50
2023-01-13T04:32:36.569Z,98076.31
2023-01-13T04:35:04.203Z,98078.16
2023-01-13T04:37:33.504Z,98071.19
2023-01-13T04:40:00.854Z,98068.53
2023-01-13T04:42:29.356Z,98081.59
2023-01-13T04:44:56.719Z,98070.19
2023-01-13T04:47:24.689Z,98070.19
2023-01-13T04:49:52.091Z,98072.84
2023-01-13T04:52:19.978Z,98071.19
2023-01-13T04:54:47.550Z,98064.03
2023-01-13T04:57:15.152Z,98068.53
2023-01-13T04:59:42.848Z,98064.25
2023-01-13T05:02:11.567Z,98065.06
2023-01-13T05:04:39.111Z,98068.53
2023-01-13T05:07:07.871Z,98073.84
2023-01-13T05:09:36.404Z,98066.91
2023-01-13T05:12:22.865Z,98068.53
2023-01-13T05:15:08.604Z,98072.00
2023-01-13T05:17:36.652Z,98069.34
2023-01-13T05:20:05.292Z,98069.56
2023-01-13T05:22:51.774Z,98068.53
2023-01-13T05:25:21.803Z,98069.34
2023-01-13T05:27:50.980Z,98064.25
2023-01-13T05:30:19.397Z,98077.50
2023-01-13T05:32:47.259Z,98077.50
2023-01-13T05:35:16.129Z,98079.13
2023-01-13T05:37:44.280Z,98078.31
2023-01-13T05:40:32.114Z,98078.31
2023-01-13T05:43:19.972Z,98074.84
2023-01-13T05:45:51.678Z,98066.91
2023-01-13T05:48:21.571Z,98072.22
2023-01-13T05:50:49.671Z,98075.84
2023-01-13T05:53:18.337Z,98065.25
2023-01-13T05:55:46.672Z,98070.53
2023-01-13T05:58:16.341Z,98066.91
2023-01-13T06:00:44.013Z,98069.75
2023-01-13T06:03:13.067Z,98069.75
2023-01-13T06:05:40.671Z,98070.53
2023-01-13T06:08:09.131Z,98073.19
2023-01-13T06:10:36.994Z,98068.91
2023-01-13T06:13:05.450Z,98075.84
2023-01-13T06:15:32.949Z,98079.53
2023-01-13T06:18:02.921Z,98080.16
2023-01-13T06:20:30.292Z,98075.84
2023-01-13T06:22:59.430Z,98074.22
2023-01-13T06:25:38.559Z,98070.53
2023-01-13T06:28:06.480Z,98081.16
2023-01-13T06:30:47.916Z,98083.19
2023-01-13T06:33:21.883Z,98084.00
2023-01-13T06:35:56.827Z,98084.84
2023-01-13T06:38:27.856Z,98077.88
2023-01-13T06:40:55.520Z,98077.06
2023-01-13T06:43:23.193Z,98077.88
2023-01-13T06:45:55.367Z,98085.84
2023-01-13T06:48:25.925Z,98081.56
2023-01-13T06:50:53.402Z,98086.00
2023-01-13T06:53:21.411Z,98081.56
2023-01-13T06:55:48.841Z,98074.41
2023-01-13T06:58:16.735Z,98079.91
2023-01-13T07:00:44.902Z,98086.00
2023-01-13T07:03:15.590Z,98083.34
2023-01-13T07:05:44.424Z,98079.91
2023-01-13T07:08:12.276Z,98079.91
2023-01-13T07:10:39.818Z,98079.91
2023-01-13T07:13:26.707Z,98085.19
2023-01-13T07:15:57.762Z,98087.84
2023-01-13T07:18:27.492Z,98079.91
2023-01-13T07:20:57.367Z,98088.88
2023-01-13T07:23:27.508Z,98085.19
2023-01-13T07:25:56.306Z,98085.19
2023-01-13T07:28:28.937Z,98085.19
2023-01-13T07:30:57.111Z,98085.19
2023-01-13T07:33:25.238Z,98091.31
2023-01-13T07:36:03.773Z,98081.91
2023-01-13T07:38:33.380Z,98078.28
2023-01-13T07:41:20.900Z,98072.97
2023-01-13T07:43:49.379Z,98081.56
2023-01-13T07:46:17.132Z,98078.28
2023-01-13T07:48:47.889Z,98079.09
2023-01-13T07:51:15.362Z,98081.91
2023-01-13T07:53:43.221Z,98083.56
2023-01-13T07:56:10.714Z,98083.56
2023-01-13T07:58:38.664Z,98087.22
2023-01-13T08:01:12.194Z,98086.41
2023-01-13T08:03:40.720Z,98086.41
2023-01-13T08:06:09.833Z,98093.38
2023-01-13T08:08:38.235Z,98090.72
2023-01-13T08:11:07.879Z,98091.53
2023-01-13T08:13:37.096Z,98092.53
2023-01-13T08:16:10.935Z,98095.19
2023-01-13T08:18:39.234Z,98088.88
2023-01-13T08:21:13.051Z,98087.22
2023-01-13T08:23:42.949Z,98086.41
2023-01-13T08:26:13.106Z,98087.22
2023-01-13T08:28:40.934Z,98097.81
2023-01-13T08:31:11.526Z,98092.53
2023-01-13T08:33:40.459Z,98096.19
2023-01-13T08:36:10.263Z,98096.84
2023-01-13T08:38:38.410Z,98090.72
2023-01-13T08:41:13.331Z,98095.00
2023-01-13T08:43:41.299Z,98104.78
2023-01-13T08:46:08.909Z,98109.28
2023-01-13T08:48:37.898Z,98097.81
2023-01-13T08:51:11.012Z,98097.66
2023-01-13T08:53:38.756Z,98103.13
2023-01-13T08:56:13.240Z,98105.78
2023-01-13T08:58:41.146Z,98105.78
2023-01-13T09:01:10.129Z,98100.47
2023-01-13T09:03:39.174Z,98094.19
2023-01-13T09:06:06.605Z,98106.81
2023-01-13T09:08:34.618Z,98103.13
2023-01-13T09:11:22.193Z,98099.50
2023-01-13T09:13:50.529Z,98099.50
2023-01-13T09:16:18.095Z,98098.66
2023-01-13T09:18:45.876Z,98094.19
2023-01-13T09:21:14.079Z,98095.81
2023-01-13T09:23:41.846Z,98100.13
2023-01-13T09:26:09.636Z,98104.41
2023-01-13T09:28:37.370Z,98099.09
2023-01-13T09:31:04.901Z,98090.13
2023-01-13T09:33:51.175Z,98093.78
2023-01-13T09:36:19.135Z,98086.84
2023-01-13T09:38:48.813Z,98084.00
2023-01-13T09:41:46.385Z,98081.34
2023-01-13T09:44:22.473Z,98078.69
2023-01-13T09:46:53.338Z,98075.84
2023-01-13T09:49:42.189Z,98068.91
2023-01-13T09:52:21.579Z,98070.53
2023-01-13T09:55:11.571Z,98075.84
2023-01-13T09:57:40.283Z,98072.22
2023-01-13T10:00:14.012Z,98066.06
2023-01-13T10:03:18.334Z,98053.63
2023-01-13T10:06:05.014Z,98056.06
2023-01-13T10:08:39.014Z,98051.63
2023-01-13T10:11:48.499Z,98037.50
2023-01-13T10:14:23.552Z,98041.00
2023-01-13T10:17:17.897Z,98039.16
2023-01-13T10:19:49.562Z,98032.03
2023-01-13T10:22:45.216Z,98032.03
2023-01-13T10:25:26.784Z,98035.31
2023-01-13T10:27:56.779Z,98031.84
2023-01-13T10:30:33.890Z,98031.84
2023-01-13T10:33:13.737Z,98015.09
2023-01-13T10:35:56.600Z,98025.50
2023-01-13T10:38:29.316Z,98028.16
2023-01-13T10:41:00.221Z,98021.88
2023-01-13T10:43:29.653Z,98023.66
2023-01-13T10:45:58.764Z,98018.38
2023-01-13T10:48:56.699Z,98021.66
2023-01-13T10:51:50.126Z,98016.34
2023-01-13T10:54:23.787Z,98010.03
2023-01-13T10:57:21.224Z,98010.22
2023-01-13T10:59:50.882Z,98000.44
2023-01-13T11:02:30.987Z,98005.72
2023-01-13T11:05:16.718Z,97999.44
2023-01-13T11:07:52.626Z,97989.81
2023-01-13T11:10:27.472Z,97997.78
2023-01-13T11:13:20.726Z,97997.78
2023-01-13T11:16:16.662Z,97992.47
2023-01-13T11:19:02.483Z,97994.31
2023-01-13T11:21:55.470Z,97988.19
2023-01-13T11:24:36.907Z,97994.31
2023-01-13T11:27:19.944Z,97988.19
2023-01-13T11:30:09.771Z,97990.84
2023-01-13T11:32:44.163Z,97986.16
2023-01-13T11:35:19.559Z,97985.53
2023-01-13T11:37:57.782Z,97984.50
2023-01-13T11:40:32.746Z,97989.00
2023-01-13T11:43:12.499Z,97987.38
2023-01-13T11:45:45.107Z,97981.22
2023-01-13T11:48:16.639Z,97992.69
2023-01-13T11:50:51.076Z,97984.91
2023-01-13T11:53:49.192Z,97986.53
2023-01-13T11:56:34.671Z,97986.53
2023-01-13T11:59:14.642Z,97977.75
2023-01-13T12:01:52.921Z,97977.56
2023-01-13T12:04:23.248Z,97971.47
2023-01-13T12:07:29.043Z,97974.94
2023-01-13T12:10:11.628Z,97965.31
2023-01-13T12:13:00.198Z,97961.03
2023-01-13T12:15:58.096Z,97961.03
2023-01-13T12:18:47.316Z,97960.00
2023-01-13T12:21:26.066Z,97954.06
2023-01-13T12:24:10.681Z,97966.34
2023-01-13T12:26:51.295Z,97961.03
2023-01-13T12:29:24.810Z,97971.03
2023-01-13T12:31:52.967Z,97966.53
2023-01-13T12:34:27.173Z,97959.59
2023-01-13T12:37:48.172Z,97967.75
2023-01-13T12:40:21.361Z,97971.41
2023-01-13T12:43:11.429Z,97968.75
2023-01-13T12:45:38.789Z,97966.13
2023-01-13T12:48:07.262Z,97966.13
2023-01-13T12:50:40.892Z,97970.56
2023-01-13T12:53:33.690Z,97975.06
2023-01-13T12:56:38.738Z,97979.56
2023-01-13T12:59:21.405Z,97984.88
2023-01-13T13:01:51.419Z,97979.56
2023-01-13T13:04:43.768Z,97984.06
2023-01-13T13:07:17.374Z,97982.41
2023-01-13T13:09:51.445Z,97984.06
2023-01-13T13:13:10.663Z,97989.34
2023-01-13T13:15:38.855Z,97988.50
2023-01-13T13:18:08.637Z,97993.00
2023-01-13T13:21:09.343Z,97993.00
2023-01-13T13:23:40.096Z,97993.00
2023-01-13T13:26:28.635Z,97996.69
2023-01-13T13:29:23.969Z,97999.34
2023-01-13T13:32:25.685Z,97988.91
2023-01-13T13:35:26.564Z,97991.38
2023-01-13T13:38:23.149Z,98000.34
2023-01-13T13:41:09.419Z,98002.00
2023-01-13T13:44:03.357Z,97994.03
2023-01-13T13:46:46.879Z,98002.97
2023-01-13T13:49:21.831Z,97997.69
2023-01-13T13:52:04.395Z,98001.16
2023-01-13T13:54:33.111Z,98002.00
2023-01-13T13:57:00.987Z,97998.72
2023-01-13T13:59:30.904Z,97997.91
2023-01-13T14:02:01.514Z,98004.00
2023-01-13T14:04:32.774Z,97995.25
2023-01-13T14:07:06.661Z,97992.59
2023-01-13T14:09:44.758Z,97998.72
2023-01-13T14:12:27.042Z,97993.41
2023-01-13T14:14:57.409Z,97998.72
2023-01-13T14:17:27.687Z,98000.34
2023-01-13T14:20:04.910Z,97990.75
2023-01-13T14:22:32.800Z,97986.44
2023-01-13T14:25:01.871Z,97992.59
2023-01-13T14:27:30.401Z,97990.75
2023-01-13T14:30:00.374Z,97991.75
2023-01-13T14:32:36.594Z,97992.59
2023-01-13T14:35:08.108Z,97990.13
2023-01-13T14:37:39.166Z,97995.25
2023-01-13T14:40:32.974Z,97994.41
2023-01-13T14:43:01.102Z,97997.06
2023-01-13T14:45:30.571Z,97998.72
2023-01-13T14:48:08.811Z,97999.53
2023-01-13T14:50:36.734Z,98004.00
2023-01-13T14:53:05.077Z,98002.00
2023-01-13T14:55:36.322Z,97997.50
2023-01-13T14:58:18.684Z,98006.91
2023-01-13T15:00:46.275Z,98012.19
2023-01-13T15:03:15.712Z,98008.56
2023-01-13T15:05:49.297Z,98011.84
2023-01-13T15:08:27.860Z,98012.66
2023-01-13T15:11:00.930Z,98010.63
2023-01-13T15:13:48.226Z,98016.09
2023-01-13T15:16:25.032Z,98015.94
2023-01-13T15:18:53.883Z,98016.75
2023-01-13T15:21:23.040Z,98013.06
2023-01-13T15:23:50.867Z,98014.91
2023-01-13T15:26:22.418Z,98015.53
2023-01-13T15:28:50.323Z,98023.66
2023-01-13T15:31:18.261Z,98022.50
2023-01-13T15:33:45.739Z,98022.50
2023-01-13T15:36:33.615Z,98023.31
2023-01-13T15:39:01.797Z,98026.59
2023-01-13T15:41:47.917Z,98029.88
2023-01-13T15:44:34.880Z,98027.84
2023-01-13T15:47:07.342Z,98028.66
2023-01-13T15:49:39.046Z,98029.47
2023-01-13T15:52:15.536Z,98040.72
2023-01-13T15:54:45.413Z,98041.34
2023-01-13T15:57:24.690Z,98032.34
2023-01-13T15:59:55.051Z,98039.94
2023-01-13T16:02:23.528Z,98041.56
2023-01-13T16:04:53.749Z,98036.88
2023-01-13T16:07:25.043Z,98040.16
2023-01-13T16:09:52.553Z,98043.44
2023-01-13T16:12:20.316Z,98050.41
2023-01-13T16:14:47.636Z,98061.66
2023-01-13T16:17:23.816Z,98063.09
2023-01-13T16:19:51.922Z,98066.56
2023-01-13T16:22:19.566Z,98057.19
2023-01-13T16:24:48.250Z,98055.34
2023-01-13T16:27:23.975Z,98057.81
2023-01-13T16:29:52.063Z,98049.88
2023-01-13T16:32:22.211Z,98056.63
2023-01-13T16:34:50.530Z,98058.06
2023-01-13T16:37:23.675Z,98063.38
2023-01-13T16:39:52.852Z,98065.66
2023-01-13T16:42:21.204Z,98064.81
2023-01-13T16:44:49.687Z,98070.56
2023-01-13T16:47:18.011Z,98061.56
2023-01-13T16:49:46.080Z,98062.59
2023-01-13T16:52:13.660Z,98070.38
2023-01-13T16:54:41.020Z,98064.84
2023-01-13T16:57:12.800Z,98077.94
2023-01-13T16:59:40.096Z,98072.44
2023-01-13T17:02:14.626Z,98066.13
2023-01-13T17:04:42.140Z,98070.44
2023-01-13T17:07:14.980Z,98073.91
2023-01-13T17:09:42.444Z,98066.56
2023-01-13T17:12:10.251Z,98062.06
2023-01-13T17:14:38.126Z,98051.06
2023-01-13T17:17:06.057Z,98059.66
2023-01-13T17:19:33.368Z,98060.47
2023-01-13T17:22:00.945Z,98065.78
2023-01-13T17:24:30.909Z,98077.22
2023-01-13T17:26:58.991Z,98071.50
2023-01-13T17:29:27.657Z,98069.47
2023-01-13T17:31:55.627Z,98073.16
2023-01-13T17:34:23.222Z,98074.78
2023-01-13T17:36:50.992Z,98069.47
2023-01-13T17:39:24.604Z,98066.63
2023-01-13T17:41:53.592Z,98067.44
2023-01-13T17:44:22.459Z,98072.75
2023-01-13T17:46:50.133Z,98083.00
2023-01-13T17:49:19.885Z,98074.00
2023-01-13T17:51:48.351Z,98077.69
2023-01-13T17:54:15.954Z,98079.31
2023-01-13T17:56:44.361Z,98079.31
2023-01-13T17:59:13.783Z,98083.63
2023-01-13T18:01:41.604Z,98085.25
2023-01-13T18:04:20.400Z,98082.59
2023-01-13T18:06:48.609Z,98086.91
2023-01-13T18:09:16.878Z,98087.53
2023-01-13T18:11:45.627Z,98099.16
2023-01-13T18:14:14.695Z,98100.59
2023-01-13T18:16:42.944Z,98100.81
2023-01-13T18:19:28.870Z,98103.47
2023-01-13T18:22:15.684Z,98117.75
2023-01-13T18:25:01.504Z,98114.09
2023-01-13T18:27:32.775Z,98116.94
2023-01-13T18:30:01.914Z,98115.72
2023-01-13T18:32:33.042Z,98129.19
2023-01-13T18:35:06.419Z,98130.22
2023-01-13T18:37:35.992Z,98129.19
2023-01-13T18:40:05.057Z,98136.34
2023-01-13T18:42:51.232Z,98134.91
2023-01-13T18:45:24.273Z,98144.72
2023-01-13T18:47:53.641Z,98146.34
2023-01-13T18:50:22.356Z,98148.81
2023-01-13T18:52:50.116Z,98150.03
2023-01-13T18:55:17.780Z,98153.69
2023-01-13T18:57:45.905Z,98157.38
2023-01-13T19:00:17.481Z,98153.06
2023-01-13T19:05:34.922Z,98168.00
2023-01-13T19:08:02.935Z,98180.66
2023-01-13T19:10:32.226Z,98176.31
2023-01-13T19:13:01.541Z,98175.50
2023-01-13T19:15:30.398Z,98186.31
2023-01-13T19:17:58.161Z,98190.00
2023-01-13T19:20:25.477Z,98196.94
2023-01-13T19:22:54.399Z,98188.34
2023-01-13T19:25:22.170Z,98183.03
2023-01-13T19:27:49.776Z,98189.38
2023-01-13T19:30:17.462Z,98184.25
2023-01-13T19:32:45.064Z,98193.88
2023-01-13T19:35:13.187Z,98197.53
2023-01-13T19:37:40.809Z,98198.97
2023-01-13T19:40:09.893Z,98202.66
2023-01-13T19:42:56.188Z,98197.78
2023-01-13T19:45:26.485Z,98200.63
2023-01-13T19:47:55.487Z,98193.66
2023-01-13T19:50:22.959Z,98207.56
2023-01-13T19:52:51.070Z,98202.25
2023-01-13T19:55:19.767Z,98208.59
2023-01-13T19:57:47.415Z,98218.19
2023-01-13T20:00:20.375Z,98215.34
2023-01-13T20:02:49.852Z,98218.81
2023-01-13T20:05:25.194Z,98216.16
2023-01-13T20:07:53.019Z,98226.16
2023-01-13T20:10:22.245Z,98227.00
2023-01-13T20:12:49.919Z,98232.94
2023-01-13T20:15:17.306Z,98225.78
2023-01-13T20:17:44.931Z,98222.09
2023-01-13T20:20:13.613Z,98222.94
2023-01-13T20:22:41.629Z,98229.06
2023-01-13T20:25:14.638Z,98231.72
2023-01-13T20:27:42.697Z,98233.34
2023-01-13T20:30:13.458Z,98231.72
2023-01-13T20:32:42.950Z,98233.34
2023-01-13T20:35:12.058Z,98239.50
2023-01-13T20:37:41.299Z,98244.00
2023-01-13T20:40:13.446Z,98237.03
2023-01-13T20:42:47.025Z,98240.69
2023-01-13T20:45:17.985Z,98244.00
2023-01-13T20:47:45.962Z,98243.16
2023-01-13T20:50:14.608Z,98247.84
2023-01-13T20:52:44.077Z,98252.97
2023-01-13T20:55:12.647Z,98252.97
2023-01-13T20:57:41.717Z,98259.91
2023-01-13T21:00:10.550Z,98260.94
2023-01-13T21:02:39.990Z,98271.56
2023-01-13T21:05:09.800Z,98267.25
2023-01-13T21:07:37.464Z,98278.50
2023-01-13T21:10:05.230Z,98267.25
2023-01-13T21:12:51.697Z,98276.25
2023-01-13T21:15:21.492Z,98271.75
2023-01-13T21:18:10.080Z,98272.78
2023-01-13T21:20:39.312Z,98291.38
2023-01-13T21:23:07.154Z,98300.78
2023-01-13T21:25:36.397Z,98295.03
2023-01-13T21:28:05.908Z,98293.19
2023-01-13T21:30:34.205Z,98295.84
2023-01-13T21:33:03.828Z,98296.69
2023-01-13T21:35:31.748Z,98295.22
2023-01-13T21:37:59.379Z,98296.88
2023-01-13T21:40:26.874Z,98294.22
2023-01-13T21:43:13.077Z,98312.97
2023-01-13T21:45:59.157Z,98309.50
2023-01-13T21:48:26.738Z,98313.16
2023-01-13T21:50:54.726Z,98314.19
2023-01-13T21:53:22.306Z,98310.50
2023-01-13T21:55:52.697Z,98314.81
2023-01-13T21:58:20.328Z,98307.84
2023-01-13T22:00:49.207Z,98321.13
2023-01-13T22:03:18.639Z,98320.53
2023-01-13T22:05:46.903Z,98323.19
2023-01-13T22:08:14.491Z,98310.91
2023-01-13T22:10:57.742Z,98320.53
2023-01-13T22:13:45.367Z,98323.53
2023-01-13T22:16:13.361Z,98309.28
2023-01-13T22:18:40.990Z,98317.41
2023-01-13T22:21:08.341Z,98319.91
2023-01-13T22:23:35.901Z,98320.25
2023-01-13T22:26:05.066Z,98321.91
2023-01-13T22:28:40.039Z,98323.94
2023-01-13T22:31:09.301Z,98320.25
2023-01-13T22:33:38.622Z,98329.25
2023-01-13T22:36:06.919Z,98327.59
2023-01-13T22:38:35.016Z,98329.25
2023-01-13T22:41:06.464Z,98333.72
2023-01-13T22:43:35.136Z,98332.91
2023-01-13T22:46:06.776Z,98332.91
2023-01-13T22:48:35.111Z,98326.78
2023-01-13T22:51:11.034Z,98331.28
2023-01-13T22:53:39.482Z,98336.59
2023-01-13T22:56:08.631Z,98334.75
2023-01-13T22:58:36.242Z,98331.28
2023-01-13T23:01:12.095Z,98336.59
2023-01-13T23:03:40.279Z,98334.91
2023-01-13T23:06:08.169Z,98342.88
2023-01-13T23:08:36.078Z,98333.09
2023-01-13T23:11:05.889Z,98334.91
2023-01-13T23:13:34.158Z,98328.41
2023-01-13T23:16:03.463Z,98332.09
2023-01-13T23:18:31.889Z,98341.88
2023-01-13T23:21:04.527Z,98343.53
2023-01-13T23:23:33.326Z,98341.88
2023-01-13T23:26:00.627Z,98350.66
2023-01-13T23:28:28.203Z,98351.31
2023-01-13T23:30:55.514Z,98349.03
2023-01-13T23:33:23.211Z,98358.63
2023-01-13T23:36:02.119Z,98359.44
2023-01-13T23:38:30.860Z,98363.13
2023-01-13T23:40:58.616Z,98363.13
2023-01-13T23:43:26.561Z,98363.13
2023-01-13T23:46:02.239Z,98360.47
2023-01-13T23:48:29.949Z,98363.13
2023-01-13T23:51:02.270Z,98363.13
2023-01-13T23:53:40.199Z,98365.16
2023-01-13T23:56:11.774Z,98366.78
2023-01-13T23:58:39.611Z,98366.78
